PWSweather.com
Personal Weather Stations
Station Observations
KTXPLANO60
Highlands Of Russell Park, Plano, TX 75025

Highlands Of Russell ParkPlano, TX 75025

Lat: 33.10431671, Lon: -96.75176239

Elevation: 761

Station Type: Davis Wireless VP2 Plus

http://www.planoweather.com

Latest ConditionsUpdated 5:00:01 AM CDT Tuesday, Oct 15, 2019
Currently Today's Max Today's Min Today's Average
Temperature 70.8°F21.6°C 70.8°F21.6°C 67.9°F19.9°C 69.2°F20.7°C
Dew Point 68.0°F20.0°C 68.0°F20.0°C 65.2°F18.4°C 66.5°F19.2°C
Winds 9.2 mph S14.8 kmh S 9.2 mph -14.8 kmh - - 6.9 mph 11.1 kmh
Wind Gusts 12.7 mph20.4 kmh 16.1 mph25.9 kmh - -
Humidity 91% 91% 91% 91%
Pressure 29.81 in1009.5 mb 29.88 in1011.9 mb 29.81 in1009.5 mb -
Hour Temp Dew Point Humidity Winds Wind Gusts Pressure Precip Precip Rate Daily Precip Total
05:00 AM 70.8°F21.6°C 68.0°F20.0°C 91% 9.2 mph S14.8 kmh S 12.7 mph20.4 kmh 29.81 in1009.5 mb - 0.00 in0.0 mm 0.00 in0.0 mm
04:50 AM 70.7°F21.5°C 67.9°F19.9°C 91% 8.1 mph SSE13.0 kmh SSE 11.5 mph18.5 kmh 29.82 in1009.8 mb - 0.00 in0.0 mm 0.00 in0.0 mm
04:40 AM 70.7°F21.5°C 67.9°F19.9°C 91% 9.2 mph SSE14.8 kmh SSE 11.5 mph18.5 kmh 29.82 in1009.8 mb - 0.00 in0.0 mm 0.00 in0.0 mm
04:30 AM 70.6°F21.4°C 67.8°F19.9°C 91% 6.9 mph SSE11.1 kmh SSE 8.1 mph13.0 kmh 29.82 in1009.8 mb - 0.00 in0.0 mm 0.00 in0.0 mm
04:20 AM 70.4°F21.3°C 67.6°F19.8°C 91% 6.9 mph SSE11.1 kmh SSE 9.2 mph14.8 kmh 29.82 in1009.8 mb - 0.00 in0.0 mm 0.00 in0.0 mm
04:10 AM 70.2°F21.2°C 67.4°F19.7°C 91% 6.9 mph SE11.1 kmh SE 12.7 mph20.4 kmh 29.82 in1009.8 mb - 0.00 in0.0 mm 0.00 in0.0 mm
04:00 AM 70.0°F21.1°C 67.3°F19.6°C 91% 5.8 mph SSE9.3 kmh SSE 11.5 mph18.5 kmh 29.83 in1010.2 mb - 0.00 in0.0 mm 0.00 in0.0 mm
03:50 AM 69.9°F21.1°C 67.2°F19.6°C 91% 4.6 mph SSE7.4 kmh SSE 8.1 mph13.0 kmh 29.83 in1010.2 mb - 0.00 in0.0 mm 0.00 in0.0 mm
03:40 AM 69.8°F21.0°C 67.1°F19.5°C 91% 5.8 mph SE9.3 kmh SE 9.2 mph14.8 kmh 29.83 in1010.2 mb - 0.00 in0.0 mm 0.00 in0.0 mm
03:30 AM 69.7°F20.9°C 67.0°F19.4°C 91% 6.9 mph SE11.1 kmh SE 11.5 mph18.5 kmh 29.84 in1010.5 mb - 0.00 in0.0 mm 0.00 in0.0 mm
03:20 AM 69.7°F20.9°C 67.0°F19.4°C 91% 5.8 mph SE9.3 kmh SE 6.9 mph11.1 kmh 29.84 in1010.5 mb - 0.00 in0.0 mm 0.00 in0.0 mm
03:10 AM 69.4°F20.8°C 66.7°F19.3°C 91% 8.1 mph SSE13.0 kmh SSE 16.1 mph25.9 kmh 29.84 in1010.5 mb - 0.00 in0.0 mm 0.00 in0.0 mm
03:00 AM 69.4°F20.8°C 66.6°F19.2°C 91% 5.8 mph SE9.3 kmh SE 9.2 mph14.8 kmh 29.84 in1010.5 mb - 0.00 in0.0 mm 0.00 in0.0 mm
02:50 AM 69.3°F20.7°C 66.5°F19.2°C 91% 8.1 mph SE13.0 kmh SE 11.5 mph18.5 kmh 29.84 in1010.5 mb - 0.00 in0.0 mm 0.00 in0.0 mm
02:40 AM 69.2°F20.7°C 66.5°F19.2°C 91% 8.1 mph SE13.0 kmh SE 11.5 mph18.5 kmh 29.85 in1010.8 mb - 0.00 in0.0 mm 0.00 in0.0 mm
02:30 AM 69.0°F20.6°C 66.3°F19.1°C 91% 9.2 mph SE14.8 kmh SE 13.8 mph22.2 kmh 29.85 in1010.8 mb - 0.00 in0.0 mm 0.00 in0.0 mm
02:20 AM 69.0°F20.6°C 66.3°F19.1°C 91% 6.9 mph SE11.1 kmh SE 8.1 mph13.0 kmh 29.86 in1011.2 mb - 0.00 in0.0 mm 0.00 in0.0 mm
02:10 AM 68.9°F20.5°C 66.2°F19.0°C 91% 6.9 mph SE11.1 kmh SE 10.4 mph16.7 kmh 29.86 in1011.2 mb - 0.00 in0.0 mm 0.00 in0.0 mm
02:00 AM 68.8°F20.4°C 66.1°F18.9°C 91% 4.6 mph SSE7.4 kmh SSE 5.8 mph9.3 kmh 29.86 in1011.2 mb - 0.00 in0.0 mm 0.00 in0.0 mm
01:50 AM 68.7°F20.4°C 66.0°F18.9°C 91% 5.8 mph SE9.3 kmh SE 12.7 mph20.4 kmh 29.86 in1011.2 mb - 0.00 in0.0 mm 0.00 in0.0 mm
01:40 AM 68.7°F20.4°C 66.0°F18.9°C 91% 6.9 mph SE11.1 kmh SE 11.5 mph18.5 kmh 29.86 in1011.2 mb - 0.00 in0.0 mm 0.00 in0.0 mm
01:30 AM 68.6°F20.3°C 65.9°F18.8°C 91% 5.8 mph SE9.3 kmh SE 9.2 mph14.8 kmh 29.86 in1011.2 mb - 0.00 in0.0 mm 0.00 in0.0 mm
01:20 AM 68.5°F20.3°C 65.8°F18.8°C 91% 5.8 mph SE9.3 kmh SE 11.5 mph18.5 kmh 29.87 in1011.5 mb - 0.00 in0.0 mm 0.00 in0.0 mm
01:10 AM 68.3°F20.2°C 65.6°F18.7°C 91% 8.1 mph SE13.0 kmh SE 11.5 mph18.5 kmh 29.87 in1011.5 mb - 0.00 in0.0 mm 0.00 in0.0 mm
01:00 AM 68.3°F20.2°C 65.6°F18.7°C 91% 6.9 mph SE11.1 kmh SE 13.8 mph22.2 kmh 29.87 in1011.5 mb - 0.00 in0.0 mm 0.00 in0.0 mm
12:50 AM 68.1°F20.1°C 65.4°F18.6°C 91% 5.8 mph SE9.3 kmh SE 11.5 mph18.5 kmh 29.87 in1011.5 mb - 0.00 in0.0 mm 0.00 in0.0 mm
12:40 AM 68.1°F20.1°C 65.4°F18.6°C 91% 8.1 mph SE13.0 kmh SE 11.5 mph18.5 kmh 29.88 in1011.9 mb - 0.00 in0.0 mm 0.00 in0.0 mm
12:30 AM 68.0°F20.0°C 65.3°F18.5°C 91% 6.9 mph SE11.1 kmh SE 10.4 mph16.7 kmh 29.88 in1011.9 mb - 0.00 in0.0 mm 0.00 in0.0 mm
12:20 AM 68.0°F20.0°C 65.2°F18.4°C 91% 4.6 mph SE7.4 kmh SE 6.9 mph11.1 kmh 29.88 in1011.9 mb - 0.00 in0.0 mm 0.00 in0.0 mm
12:10 AM 67.9°F19.9°C 65.2°F18.4°C 91% 5.8 mph SE9.3 kmh SE 10.4 mph16.7 kmh 29.88 in1011.9 mb - 0.00 in0.0 mm 0.00 in0.0 mm
12:00 AM 67.9°F19.9°C 65.2°F18.4°C 91% 8.1 mph SE13.0 kmh SE 13.8 mph22.2 kmh 29.88 in1011.9 mb - 0.00 in0.0 mm 0.00 in0.0 mm